sensor_id;sensor_type;location;lat;lon;timestamp;temperature;humidity
16172;DHT22;8192;53.596;10.166;2023-06-22T00:00:14;15.10;94.30
16172;DHT22;8192;53.596;10.166;2023-06-22T00:02:41;15.10;94.00
16172;DHT22;8192;53.596;10.166;2023-06-22T00:05:08;15.00;94.20
16172;DHT22;8192;53.596;10.166;2023-06-22T00:07:35;14.90;94.20
16172;DHT22;8192;53.596;10.166;2023-06-22T00:10:03;15.00;94.90
16172;DHT22;8192;53.596;10.166;2023-06-22T00:12:30;15.00;94.60
16172;DHT22;8192;53.596;10.166;2023-06-22T00:14:57;15.00;94.70
16172;DHT22;8192;53.596;10.166;2023-06-22T00:17:26;15.00;94.50
16172;DHT22;8192;53.596;10.166;2023-06-22T00:19:53;15.00;94.50
16172;DHT22;8192;53.596;10.166;2023-06-22T00:22:20;15.00;94.60
16172;DHT22;8192;53.596;10.166;2023-06-22T00:24:54;15.00;95.20
16172;DHT22;8192;53.596;10.166;2023-06-22T00:27:21;15.10;95.40
16172;DHT22;8192;53.596;10.166;2023-06-22T00:29:49;15.00;95.20
16172;DHT22;8192;53.596;10.166;2023-06-22T00:32:16;15.00;94.90
16172;DHT22;8192;53.596;10.166;2023-06-22T00:34:45;15.00;95.40
16172;DHT22;8192;53.596;10.166;2023-06-22T00:37:12;14.90;95.10
16172;DHT22;8192;53.596;10.166;2023-06-22T00:39:39;14.90;95.00
16172;DHT22;8192;53.596;10.166;2023-06-22T00:42:06;14.80;95.10
16172;DHT22;8192;53.596;10.166;2023-06-22T00:44:33;14.80;95.30
16172;DHT22;8192;53.596;10.166;2023-06-22T00:47:00;14.80;95.30
16172;DHT22;8192;53.596;10.166;2023-06-22T00:49:27;14.80;95.30
16172;DHT22;8192;53.596;10.166;2023-06-22T00:51:57;14.80;95.50
16172;DHT22;8192;53.596;10.166;2023-06-22T00:54:24;14.90;95.50
16172;DHT22;8192;53.596;10.166;2023-06-22T00:56:52;15.00;95.50
16172;DHT22;8192;53.596;10.166;2023-06-22T00:59:20;15.00;95.70
16172;DHT22;8192;53.596;10.166;2023-06-22T01:01:47;15.10;95.60
16172;DHT22;8192;53.596;10.166;2023-06-22T01:04:15;15.20;95.70
16172;DHT22;8192;53.596;10.166;2023-06-22T01:06:47;15.30;95.30
16172;DHT22;8192;53.596;10.166;2023-06-22T01:09:23;15.30;95.50
16172;DHT22;8192;53.596;10.166;2023-06-22T01:11:57;15.40;95.00
16172;DHT22;8192;53.596;10.166;2023-06-22T01:14:35;15.40;94.70
16172;DHT22;8192;53.596;10.166;2023-06-22T01:17:06;15.50;94.60
16172;DHT22;8192;53.596;10.166;2023-06-22T01:19:39;15.40;94.70
16172;DHT22;8192;53.596;10.166;2023-06-22T01:22:13;15.30;94.70
16172;DHT22;8192;53.596;10.166;2023-06-22T01:24:51;15.40;95.50
16172;DHT22;8192;53.596;10.166;2023-06-22T01:27:32;15.40;95.00
16172;DHT22;8192;53.596;10.166;2023-06-22T01:30:02;15.40;95.10
16172;DHT22;8192;53.596;10.166;2023-06-22T01:32:32;15.40;94.90
16172;DHT22;8192;53.596;10.166;2023-06-22T01:35:01;15.30;94.80
16172;DHT22;8192;53.596;10.166;2023-06-22T01:37:29;15.30;94.90
16172;DHT22;8192;53.596;10.166;2023-06-22T01:39:58;15.30;95.00
16172;DHT22;8192;53.596;10.166;2023-06-22T01:42:26;15.30;95.10
16172;DHT22;8192;53.596;10.166;2023-06-22T01:44:53;15.30;95.00
16172;DHT22;8192;53.596;10.166;2023-06-22T01:47:22;15.30;95.10
16172;DHT22;8192;53.596;10.166;2023-06-22T01:49:50;15.20;95.20
16172;DHT22;8192;53.596;10.166;2023-06-22T01:52:19;15.10;94.80
16172;DHT22;8192;53.596;10.166;2023-06-22T01:54:47;15.00;95.00
16172;DHT22;8192;53.596;10.166;2023-06-22T01:57:14;15.00;95.10
16172;DHT22;8192;53.596;10.166;2023-06-22T01:59:47;14.90;95.00
16172;DHT22;8192;53.596;10.166;2023-06-22T02:02:17;14.90;95.10
16172;DHT22;8192;53.596;10.166;2023-06-22T02:04:48;14.90;95.50
16172;DHT22;8192;53.596;10.166;2023-06-22T02:07:20;14.80;95.50
16172;DHT22;8192;53.596;10.166;2023-06-22T02:09:51;14.80;95.50
16172;DHT22;8192;53.596;10.166;2023-06-22T02:12:23;14.80;95.40
16172;DHT22;8192;53.596;10.166;2023-06-22T02:14:53;14.70;95.40
16172;DHT22;8192;53.596;10.166;2023-06-22T02:17:21;14.70;95.50
16172;DHT22;8192;53.596;10.166;2023-06-22T02:19:50;14.70;95.60
16172;DHT22;8192;53.596;10.166;2023-06-22T02:22:17;14.70;95.50
16172;DHT22;8192;53.596;10.166;2023-06-22T02:24:44;14.70;95.50
16172;DHT22;8192;53.596;10.166;2023-06-22T02:27:11;14.70;95.50
16172;DHT22;8192;53.596;10.166;2023-06-22T02:29:38;14.70;95.80
16172;DHT22;8192;53.596;10.166;2023-06-22T02:32:06;14.70;96.10
16172;DHT22;8192;53.596;10.166;2023-06-22T02:34:33;14.70;96.10
16172;DHT22;8192;53.596;10.166;2023-06-22T02:37:01;14.70;96.00
16172;DHT22;8192;53.596;10.166;2023-06-22T02:39:29;14.70;96.10
16172;DHT22;8192;53.596;10.166;2023-06-22T02:41:56;14.80;96.00
16172;DHT22;8192;53.596;10.166;2023-06-22T02:44:23;14.70;95.90
16172;DHT22;8192;53.596;10.166;2023-06-22T02:46:50;14.70;95.70
16172;DHT22;8192;53.596;10.166;2023-06-22T02:49:17;14.60;95.60
16172;DHT22;8192;53.596;10.166;2023-06-22T02:51:46;14.50;95.90
16172;DHT22;8192;53.596;10.166;2023-06-22T02:54:15;14.50;96.30
16172;DHT22;8192;53.596;10.166;2023-06-22T02:56:42;14.50;96.30
16172;DHT22;8192;53.596;10.166;2023-06-22T02:59:10;14.60;96.20
16172;DHT22;8192;53.596;10.166;2023-06-22T03:01:38;14.50;96.20
16172;DHT22;8192;53.596;10.166;2023-06-22T03:04:07;14.50;96.00
16172;DHT22;8192;53.596;10.166;2023-06-22T03:06:34;14.40;95.90
16172;DHT22;8192;53.596;10.166;2023-06-22T03:09:03;14.40;96.00
16172;DHT22;8192;53.596;10.166;2023-06-22T03:11:32;14.40;95.90
16172;DHT22;8192;53.596;10.166;2023-06-22T03:14:00;14.30;96.10
16172;DHT22;8192;53.596;10.166;2023-06-22T03:16:27;14.40;96.60
16172;DHT22;8192;53.596;10.166;2023-06-22T03:18:55;14.50;96.60
16172;DHT22;8192;53.596;10.166;2023-06-22T03:21:22;14.50;96.40
16172;DHT22;8192;53.596;10.166;2023-06-22T03:23:50;14.40;96.30
16172;DHT22;8192;53.596;10.166;2023-06-22T03:26:18;14.50;96.20
16172;DHT22;8192;53.596;10.166;2023-06-22T03:28:46;14.40;96.10
16172;DHT22;8192;53.596;10.166;2023-06-22T03:31:14;14.50;96.20
16172;DHT22;8192;53.596;10.166;2023-06-22T03:33:41;14.40;96.30
16172;DHT22;8192;53.596;10.166;2023-06-22T03:36:08;14.50;96.40
16172;DHT22;8192;53.596;10.166;2023-06-22T03:38:35;14.50;96.40
16172;DHT22;8192;53.596;10.166;2023-06-22T03:41:02;14.60;96.40
16172;DHT22;8192;53.596;10.166;2023-06-22T03:43:29;14.70;96.40
16172;DHT22;8192;53.596;10.166;2023-06-22T03:45:57;14.80;96.40
16172;DHT22;8192;53.596;10.166;2023-06-22T03:48:26;14.90;96.30
16172;DHT22;8192;53.596;10.166;2023-06-22T03:50:53;15.10;96.20
16172;DHT22;8192;53.596;10.166;2023-06-22T03:53:20;15.30;96.10
16172;DHT22;8192;53.596;10.166;2023-06-22T03:55:48;15.50;95.80
16172;DHT22;8192;53.596;10.166;2023-06-22T03:58:16;15.70;94.00
16172;DHT22;8192;53.596;10.166;2023-06-22T04:00:44;16.00;94.80
16172;DHT22;8192;53.596;10.166;2023-06-22T04:03:13;16.30;94.50
16172;DHT22;8192;53.596;10.166;2023-06-22T04:05:40;16.50;93.80
16172;DHT22;8192;53.596;10.166;2023-06-22T04:08:08;16.80;93.60
16172;DHT22;8192;53.596;10.166;2023-06-22T04:10:35;17.00;92.50
16172;DHT22;8192;53.596;10.166;2023-06-22T04:13:02;17.20;92.40
16172;DHT22;8192;53.596;10.166;2023-06-22T04:15:29;17.40;91.60
16172;DHT22;8192;53.596;10.166;2023-06-22T04:17:56;17.50;90.90
16172;DHT22;8192;53.596;10.166;2023-06-22T04:20:25;17.40;90.10
16172;DHT22;8192;53.596;10.166;2023-06-22T04:22:53;17.40;89.20
16172;DHT22;8192;53.596;10.166;2023-06-22T04:25:22;17.30;89.30
16172;DHT22;8192;53.596;10.166;2023-06-22T04:27:49;17.30;88.50
16172;DHT22;8192;53.596;10.166;2023-06-22T04:30:16;17.30;89.40
16172;DHT22;8192;53.596;10.166;2023-06-22T04:32:43;17.50;89.60
16172;DHT22;8192;53.596;10.166;2023-06-22T04:35:11;17.60;89.40
16172;DHT22;8192;53.596;10.166;2023-06-22T04:37:43;17.70;87.80
16172;DHT22;8192;53.596;10.166;2023-06-22T04:40:11;17.60;88.20
16172;DHT22;8192;53.596;10.166;2023-06-22T04:42:40;17.80;88.70
16172;DHT22;8192;53.596;10.166;2023-06-22T04:45:17;18.00;88.10
16172;DHT22;8192;53.596;10.166;2023-06-22T04:47:44;18.00;85.30
16172;DHT22;8192;53.596;10.166;2023-06-22T04:50:11;18.10;86.20
16172;DHT22;8192;53.596;10.166;2023-06-22T04:52:39;18.30;86.20
16172;DHT22;8192;53.596;10.166;2023-06-22T04:55:08;18.40;86.00
16172;DHT22;8192;53.596;10.166;2023-06-22T04:57:35;18.50;83.90
16172;DHT22;8192;53.596;10.166;2023-06-22T05:00:06;18.60;83.50
16172;DHT22;8192;53.596;10.166;2023-06-22T05:02:40;18.90;84.10
16172;DHT22;8192;53.596;10.166;2023-06-22T05:05:08;19.20;82.00
16172;DHT22;8192;53.596;10.166;2023-06-22T05:07:39;19.60;79.10
16172;DHT22;8192;53.596;10.166;2023-06-22T05:10:10;19.70;78.80
16172;DHT22;8192;53.596;10.166;2023-06-22T05:12:38;19.90;78.10
16172;DHT22;8192;53.596;10.166;2023-06-22T05:15:06;19.90;77.40
16172;DHT22;8192;53.596;10.166;2023-06-22T05:17:34;20.10;77.10
16172;DHT22;8192;53.596;10.166;2023-06-22T05:20:01;20.00;76.60
16172;DHT22;8192;53.596;10.166;2023-06-22T05:22:31;20.10;76.00
16172;DHT22;8192;53.596;10.166;2023-06-22T05:24:58;19.80;76.70
16172;DHT22;8192;53.596;10.166;2023-06-22T05:27:27;19.90;76.30
16172;DHT22;8192;53.596;10.166;2023-06-22T05:29:54;19.90;77.10
16172;DHT22;8192;53.596;10.166;2023-06-22T05:32:20;20.80;73.40
16172;DHT22;8192;53.596;10.166;2023-06-22T05:34:48;21.50;73.00
16172;DHT22;8192;53.596;10.166;2023-06-22T05:37:15;22.30;68.70
16172;DHT22;8192;53.596;10.166;2023-06-22T05:39:41;22.70;67.70
16172;DHT22;8192;53.596;10.166;2023-06-22T05:42:08;23.40;62.00
16172;DHT22;8192;53.596;10.166;2023-06-22T05:44:37;23.30;64.20
16172;DHT22;8192;53.596;10.166;2023-06-22T05:47:05;23.70;58.90
16172;DHT22;8192;53.596;10.166;2023-06-22T05:49:32;23.90;58.30
16172;DHT22;8192;53.596;10.166;2023-06-22T05:52:00;24.00;59.20
16172;DHT22;8192;53.596;10.166;2023-06-22T05:54:27;24.20;57.50
16172;DHT22;8192;53.596;10.166;2023-06-22T05:56:55;24.30;56.00
16172;DHT22;8192;53.596;10.166;2023-06-22T05:59:22;24.30;55.90
16172;DHT22;8192;53.596;10.166;2023-06-22T06:01:50;24.70;55.10
16172;DHT22;8192;53.596;10.166;2023-06-22T06:04:18;25.10;53.60
16172;DHT22;8192;53.596;10.166;2023-06-22T06:06:45;25.50;52.90
16172;DHT22;8192;53.596;10.166;2023-06-22T06:09:12;26.00;51.40
16172;DHT22;8192;53.596;10.166;2023-06-22T06:11:39;26.10;51.10
16172;DHT22;8192;53.596;10.166;2023-06-22T06:14:07;26.10;50.40
16172;DHT22;8192;53.596;10.166;2023-06-22T06:16:34;26.00;51.50
16172;DHT22;8192;53.596;10.166;2023-06-22T06:19:03;26.10;51.40
16172;DHT22;8192;53.596;10.166;2023-06-22T06:21:30;26.20;52.90
16172;DHT22;8192;53.596;10.166;2023-06-22T06:23:57;26.60;49.20
16172;DHT22;8192;53.596;10.166;2023-06-22T06:26:24;26.70;47.00
16172;DHT22;8192;53.596;10.166;2023-06-22T06:28:55;26.80;47.30
16172;DHT22;8192;53.596;10.166;2023-06-22T06:31:22;26.80;48.40
16172;DHT22;8192;53.596;10.166;2023-06-22T06:33:49;26.40;49.80
16172;DHT22;8192;53.596;10.166;2023-06-22T06:36:18;26.30;48.70
16172;DHT22;8192;53.596;10.166;2023-06-22T06:38:45;26.20;51.80
16172;DHT22;8192;53.596;10.166;2023-06-22T06:41:14;26.50;50.80
16172;DHT22;8192;53.596;10.166;2023-06-22T06:43:41;27.00;49.50
16172;DHT22;8192;53.596;10.166;2023-06-22T06:46:09;26.70;50.70
16172;DHT22;8192;53.596;10.166;2023-06-22T06:48:38;26.20;51.80
16172;DHT22;8192;53.596;10.166;2023-06-22T06:51:06;25.90;51.00
16172;DHT22;8192;53.596;10.166;2023-06-22T06:53:37;25.30;51.80
16172;DHT22;8192;53.596;10.166;2023-06-22T06:56:05;24.50;55.50
16172;DHT22;8192;53.596;10.166;2023-06-22T06:58:32;24.70;55.80
16172;DHT22;8192;53.596;10.166;2023-06-22T07:00:59;25.30;53.50
16172;DHT22;8192;53.596;10.166;2023-06-22T07:03:26;25.40;53.20
16172;DHT22;8192;53.596;10.166;2023-06-22T07:05:53;25.60;53.00
16172;DHT22;8192;53.596;10.166;2023-06-22T07:08:20;25.50;53.50
16172;DHT22;8192;53.596;10.166;2023-06-22T07:10:48;25.20;54.00
16172;DHT22;8192;53.596;10.166;2023-06-22T07:13:15;24.70;55.20
16172;DHT22;8192;53.596;10.166;2023-06-22T07:15:43;24.20;57.00
16172;DHT22;8192;53.596;10.166;2023-06-22T07:18:10;24.10;58.30
16172;DHT22;8192;53.596;10.166;2023-06-22T07:20:37;24.70;57.60
16172;DHT22;8192;53.596;10.166;2023-06-22T07:23:06;25.20;55.40
16172;DHT22;8192;53.596;10.166;2023-06-22T07:25:33;25.80;54.70
16172;DHT22;8192;53.596;10.166;2023-06-22T07:28:03;26.40;54.10
16172;DHT22;8192;53.596;10.166;2023-06-22T07:30:31;27.30;51.40
16172;DHT22;8192;53.596;10.166;2023-06-22T07:32:59;27.90;50.00
16172;DHT22;8192;53.596;10.166;2023-06-22T07:35:29;27.60;50.00
16172;DHT22;8192;53.596;10.166;2023-06-22T07:37:56;26.90;50.00
16172;DHT22;8192;53.596;10.166;2023-06-22T07:40:23;26.50;50.60
16172;DHT22;8192;53.596;10.166;2023-06-22T07:42:51;26.00;51.80
16172;DHT22;8192;53.596;10.166;2023-06-22T07:45:20;25.60;53.50
16172;DHT22;8192;53.596;10.166;2023-06-22T07:47:48;25.70;52.10
16172;DHT22;8192;53.596;10.166;2023-06-22T07:50:15;25.80;51.50
16172;DHT22;8192;53.596;10.166;2023-06-22T07:52:42;25.80;51.80
16172;DHT22;8192;53.596;10.166;2023-06-22T07:55:09;26.20;50.70
16172;DHT22;8192;53.596;10.166;2023-06-22T07:57:36;26.30;49.80
16172;DHT22;8192;53.596;10.166;2023-06-22T08:00:05;26.20;51.50
16172;DHT22;8192;53.596;10.166;2023-06-22T08:02:40;26.60;51.40
16172;DHT22;8192;53.596;10.166;2023-06-22T08:05:07;26.80;49.20
16172;DHT22;8192;53.596;10.166;2023-06-22T08:07:35;26.90;49.50
16172;DHT22;8192;53.596;10.166;2023-06-22T08:10:03;27.20;47.90
16172;DHT22;8192;53.596;10.166;2023-06-22T08:12:30;27.10;47.40
16172;DHT22;8192;53.596;10.166;2023-06-22T08:14:57;26.60;49.20
16172;DHT22;8192;53.596;10.166;2023-06-22T08:17:24;26.30;49.30
16172;DHT22;8192;53.596;10.166;2023-06-22T08:19:53;25.60;51.70
16172;DHT22;8192;53.596;10.166;2023-06-22T08:22:20;26.40;51.80
16172;DHT22;8192;53.596;10.166;2023-06-22T08:24:47;27.40;49.10
16172;DHT22;8192;53.596;10.166;2023-06-22T08:27:14;27.80;47.90
16172;DHT22;8192;53.596;10.166;2023-06-22T08:29:43;27.90;50.20
16172;DHT22;8192;53.596;10.166;2023-06-22T08:32:11;28.40;47.20
16172;DHT22;8192;53.596;10.166;2023-06-22T08:34:38;28.40;43.90
16172;DHT22;8192;53.596;10.166;2023-06-22T08:37:09;27.40;46.00
16172;DHT22;8192;53.596;10.166;2023-06-22T08:39:36;27.50;47.00
16172;DHT22;8192;53.596;10.166;2023-06-22T08:42:05;28.10;49.90
16172;DHT22;8192;53.596;10.166;2023-06-22T08:44:33;28.80;44.60
16172;DHT22;8192;53.596;10.166;2023-06-22T08:47:00;29.40;44.90
16172;DHT22;8192;53.596;10.166;2023-06-22T08:49:27;29.60;44.80
16172;DHT22;8192;53.596;10.166;2023-06-22T08:51:54;29.40;43.40
16172;DHT22;8192;53.596;10.166;2023-06-22T08:54:28;29.20;43.20
16172;DHT22;8192;53.596;10.166;2023-06-22T08:57:00;29.30;43.40
16172;DHT22;8192;53.596;10.166;2023-06-22T08:59:27;29.20;42.20
16172;DHT22;8192;53.596;10.166;2023-06-22T09:01:54;29.10;44.90
16172;DHT22;8192;53.596;10.166;2023-06-22T09:04:22;29.30;41.90
16172;DHT22;8192;53.596;10.166;2023-06-22T09:06:49;29.10;42.10
16172;DHT22;8192;53.596;10.166;2023-06-22T09:09:18;28.60;44.20
16172;DHT22;8192;53.596;10.166;2023-06-22T09:11:47;28.10;43.10
16172;DHT22;8192;53.596;10.166;2023-06-22T09:14:14;27.60;44.70
16172;DHT22;8192;53.596;10.166;2023-06-22T09:16:41;27.20;46.40
16172;DHT22;8192;53.596;10.166;2023-06-22T09:19:08;26.70;47.60
16172;DHT22;8192;53.596;10.166;2023-06-22T09:21:36;26.60;50.60
16172;DHT22;8192;53.596;10.166;2023-06-22T09:24:04;26.70;49.60
16172;DHT22;8192;53.596;10.166;2023-06-22T09:26:31;26.60;49.20
16172;DHT22;8192;53.596;10.166;2023-06-22T09:29:00;26.50;50.30
16172;DHT22;8192;53.596;10.166;2023-06-22T09:31:27;26.40;51.40
16172;DHT22;8192;53.596;10.166;2023-06-22T09:33:55;26.30;51.90
16172;DHT22;8192;53.596;10.166;2023-06-22T09:36:22;26.30;50.80
16172;DHT22;8192;53.596;10.166;2023-06-22T09:38:49;26.10;54.90
16172;DHT22;8192;53.596;10.166;2023-06-22T09:41:24;26.20;51.80
16172;DHT22;8192;53.596;10.166;2023-06-22T09:43:51;26.00;52.40
16172;DHT22;8192;53.596;10.166;2023-06-22T09:46:19;25.90;52.30
16172;DHT22;8192;53.596;10.166;2023-06-22T09:48:49;26.00;50.50
16172;DHT22;8192;53.596;10.166;2023-06-22T09:51:16;26.30;52.10
16172;DHT22;8192;53.596;10.166;2023-06-22T09:53:44;26.30;52.00
16172;DHT22;8192;53.596;10.166;2023-06-22T09:56:12;26.40;50.30
16172;DHT22;8192;53.596;10.166;2023-06-22T09:58:40;26.20;53.50
16172;DHT22;8192;53.596;10.166;2023-06-22T10:01:08;26.30;50.20
16172;DHT22;8192;53.596;10.166;2023-06-22T10:03:37;26.50;50.70
16172;DHT22;8192;53.596;10.166;2023-06-22T10:06:04;26.80;49.40
16172;DHT22;8192;53.596;10.166;2023-06-22T10:08:31;27.10;52.30
16172;DHT22;8192;53.596;10.166;2023-06-22T10:10:58;27.30;48.80
16172;DHT22;8192;53.596;10.166;2023-06-22T10:13:25;27.30;47.40
16172;DHT22;8192;53.596;10.166;2023-06-22T10:15:53;27.10;48.10
16172;DHT22;8192;53.596;10.166;2023-06-22T10:18:20;27.10;49.60
16172;DHT22;8192;53.596;10.166;2023-06-22T10:20:50;26.90;50.00
16172;DHT22;8192;53.596;10.166;2023-06-22T10:23:17;26.80;49.80
16172;DHT22;8192;53.596;10.166;2023-06-22T10:25:44;26.80;49.40
16172;DHT22;8192;53.596;10.166;2023-06-22T10:28:12;26.60;48.90
16172;DHT22;8192;53.596;10.166;2023-06-22T10:30:39;26.40;51.40
16172;DHT22;8192;53.596;10.166;2023-06-22T10:33:07;26.80;49.70
16172;DHT22;8192;53.596;10.166;2023-06-22T10:35:34;26.80;49.50
16172;DHT22;8192;53.596;10.166;2023-06-22T10:38:02;26.90;50.30
16172;DHT22;8192;53.596;10.166;2023-06-22T10:40:30;27.10;49.50
16172;DHT22;8192;53.596;10.166;2023-06-22T10:42:58;27.20;50.10
16172;DHT22;8192;53.596;10.166;2023-06-22T10:45:25;27.20;48.70
16172;DHT22;8192;53.596;10.166;2023-06-22T10:47:53;27.40;48.60
16172;DHT22;8192;53.596;10.166;2023-06-22T10:50:20;27.40;48.50
16172;DHT22;8192;53.596;10.166;2023-06-22T10:52:49;27.30;48.10
16172;DHT22;8192;53.596;10.166;2023-06-22T10:55:18;27.20;48.30
16172;DHT22;8192;53.596;10.166;2023-06-22T10:57:45;26.90;49.40
16172;DHT22;8192;53.596;10.166;2023-06-22T11:00:13;26.90;49.70
16172;DHT22;8192;53.596;10.166;2023-06-22T11:02:41;27.10;51.50
16172;DHT22;8192;53.596;10.166;2023-06-22T11:05:10;27.30;48.40
16172;DHT22;8192;53.596;10.166;2023-06-22T11:07:37;27.40;49.20
16172;DHT22;8192;53.596;10.166;2023-06-22T11:10:08;27.60;47.30
16172;DHT22;8192;53.596;10.166;2023-06-22T11:12:37;27.40;48.20
16172;DHT22;8192;53.596;10.166;2023-06-22T11:15:05;27.20;48.80
16172;DHT22;8192;53.596;10.166;2023-06-22T11:17:32;27.40;50.20
16172;DHT22;8192;53.596;10.166;2023-06-22T11:19:59;27.60;49.90
16172;DHT22;8192;53.596;10.166;2023-06-22T11:22:26;27.80;47.60
16172;DHT22;8192;53.596;10.166;2023-06-22T11:24:55;27.60;47.80
16172;DHT22;8192;53.596;10.166;2023-06-22T11:27:22;27.10;48.80
16172;DHT22;8192;53.596;10.166;2023-06-22T11:29:51;27.00;50.00
16172;DHT22;8192;53.596;10.166;2023-06-22T11:32:18;27.00;50.90
16172;DHT22;8192;53.596;10.166;2023-06-22T11:34:45;27.20;49.30
16172;DHT22;8192;53.596;10.166;2023-06-22T11:37:12;27.20;48.50
16172;DHT22;8192;53.596;10.166;2023-06-22T11:39:40;27.10;50.20
16172;DHT22;8192;53.596;10.166;2023-06-22T11:42:07;27.10;51.90
16172;DHT22;8192;53.596;10.166;2023-06-22T11:44:35;27.10;49.60
16172;DHT22;8192;53.596;10.166;2023-06-22T11:47:03;27.30;49.80
16172;DHT22;8192;53.596;10.166;2023-06-22T11:49:30;27.70;50.10
16172;DHT22;8192;53.596;10.166;2023-06-22T11:51:57;27.80;49.00
16172;DHT22;8192;53.596;10.166;2023-06-22T11:54:24;28.20;47.90
16172;DHT22;8192;53.596;10.166;2023-06-22T11:56:51;28.30;46.20
16172;DHT22;8192;53.596;10.166;2023-06-22T11:59:18;27.80;47.20
16172;DHT22;8192;53.596;10.166;2023-06-22T12:01:47;27.70;48.10
16172;DHT22;8192;53.596;10.166;2023-06-22T12:04:17;27.60;49.70
16172;DHT22;8192;53.596;10.166;2023-06-22T12:06:45;27.70;50.20
16172;DHT22;8192;53.596;10.166;2023-06-22T12:09:13;27.90;51.80
16172;DHT22;8192;53.596;10.166;2023-06-22T12:11:40;28.20;48.40
16172;DHT22;8192;53.596;10.166;2023-06-22T12:14:08;28.60;48.10
16172;DHT22;8192;53.596;10.166;2023-06-22T12:16:35;29.00;47.90
16172;DHT22;8192;53.596;10.166;2023-06-22T12:19:02;29.80;44.60
16172;DHT22;8192;53.596;10.166;2023-06-22T12:21:30;30.10;44.00
16172;DHT22;8192;53.596;10.166;2023-06-22T12:23:57;30.20;46.00
16172;DHT22;8192;53.596;10.166;2023-06-22T12:26:24;30.20;43.50
16172;DHT22;8192;53.596;10.166;2023-06-22T12:28:51;30.10;43.50
16172;DHT22;8192;53.596;10.166;2023-06-22T12:31:18;29.60;44.50
16172;DHT22;8192;53.596;10.166;2023-06-22T12:33:47;29.50;44.10
16172;DHT22;8192;53.596;10.166;2023-06-22T12:36:14;29.60;47.40
16172;DHT22;8192;53.596;10.166;2023-06-22T12:38:43;29.00;45.90
16172;DHT22;8192;53.596;10.166;2023-06-22T12:41:10;28.90;46.20
16172;DHT22;8192;53.596;10.166;2023-06-22T12:43:37;28.60;47.20
16172;DHT22;8192;53.596;10.166;2023-06-22T12:46:04;28.50;47.80
16172;DHT22;8192;53.596;10.166;2023-06-22T12:48:31;28.50;46.90
16172;DHT22;8192;53.596;10.166;2023-06-22T12:50:58;28.70;47.10
16172;DHT22;8192;53.596;10.166;2023-06-22T12:53:25;28.60;47.20
16172;DHT22;8192;53.596;10.166;2023-06-22T12:55:54;28.80;48.80
16172;DHT22;8192;53.596;10.166;2023-06-22T12:58:21;28.60;47.50
16172;DHT22;8192;53.596;10.166;2023-06-22T13:00:48;28.80;48.30
16172;DHT22;8192;53.596;10.166;2023-06-22T13:03:15;29.00;49.60
16172;DHT22;8192;53.596;10.166;2023-06-22T13:05:42;29.60;44.60
16172;DHT22;8192;53.596;10.166;2023-06-22T13:08:11;29.40;45.30
16172;DHT22;8192;53.596;10.166;2023-06-22T13:10:39;29.10;46.70
16172;DHT22;8192;53.596;10.166;2023-06-22T13:13:07;28.90;46.30
16172;DHT22;8192;53.596;10.166;2023-06-22T13:15:34;29.00;50.10
16172;DHT22;8192;53.596;10.166;2023-06-22T13:18:01;29.30;46.90
16172;DHT22;8192;53.596;10.166;2023-06-22T13:20:28;29.60;45.90
16172;DHT22;8192;53.596;10.166;2023-06-22T13:22:56;29.50;45.20
16172;DHT22;8192;53.596;10.166;2023-06-22T13:25:23;29.20;46.30
16172;DHT22;8192;53.596;10.166;2023-06-22T13:27:52;29.30;45.30
16172;DHT22;8192;53.596;10.166;2023-06-22T13:30:20;29.10;45.50
16172;DHT22;8192;53.596;10.166;2023-06-22T13:32:47;28.90;45.50
16172;DHT22;8192;53.596;10.166;2023-06-22T13:35:15;28.70;46.90
16172;DHT22;8192;53.596;10.166;2023-06-22T13:37:42;28.80;45.90
16172;DHT22;8192;53.596;10.166;2023-06-22T13:40:09;29.00;49.30
16172;DHT22;8192;53.596;10.166;2023-06-22T13:42:36;29.20;45.90
16172;DHT22;8192;53.596;10.166;2023-06-22T13:45:04;29.10;45.90
16172;DHT22;8192;53.596;10.166;2023-06-22T13:47:33;29.20;46.90
16172;DHT22;8192;53.596;10.166;2023-06-22T13:50:00;29.20;46.30
16172;DHT22;8192;53.596;10.166;2023-06-22T13:52:27;29.00;46.80
16172;DHT22;8192;53.596;10.166;2023-06-22T13:54:55;28.70;48.50
16172;DHT22;8192;53.596;10.166;2023-06-22T13:57:23;28.50;47.50
16172;DHT22;8192;53.596;10.166;2023-06-22T13:59:50;28.30;47.60
16172;DHT22;8192;53.596;10.166;2023-06-22T14:02:17;28.40;48.50
16172;DHT22;8192;53.596;10.166;2023-06-22T14:04:45;28.50;47.70
16172;DHT22;8192;53.596;10.166;2023-06-22T14:07:12;28.40;47.90
16172;DHT22;8192;53.596;10.166;2023-06-22T14:09:40;28.20;48.60
16172;DHT22;8192;53.596;10.166;2023-06-22T14:12:08;28.10;48.50
16172;DHT22;8192;53.596;10.166;2023-06-22T14:14:35;28.00;49.60
16172;DHT22;8192;53.596;10.166;2023-06-22T14:17:02;28.10;48.50
16172;DHT22;8192;53.596;10.166;2023-06-22T14:19:30;28.10;49.50
16172;DHT22;8192;53.596;10.166;2023-06-22T14:21:58;27.90;48.90
16172;DHT22;8192;53.596;10.166;2023-06-22T14:24:25;28.00;49.50
16172;DHT22;8192;53.596;10.166;2023-06-22T14:26:53;27.70;49.70
16172;DHT22;8192;53.596;10.166;2023-06-22T14:29:20;27.50;50.90
16172;DHT22;8192;53.596;10.166;2023-06-22T14:31:48;27.30;49.90
16172;DHT22;8192;53.596;10.166;2023-06-22T14:34:15;27.30;49.50
16172;DHT22;8192;53.596;10.166;2023-06-22T14:36:43;27.30;49.40
16172;DHT22;8192;53.596;10.166;2023-06-22T14:39:12;27.10;49.70
16172;DHT22;8192;53.596;10.166;2023-06-22T14:41:38;26.70;50.60
16172;DHT22;8192;53.596;10.166;2023-06-22T14:44:05;26.50;52.30
16172;DHT22;8192;53.596;10.166;2023-06-22T14:46:32;26.10;54.70
16172;DHT22;8192;53.596;10.166;2023-06-22T14:49:00;25.60;56.00
16172;DHT22;8192;53.596;10.166;2023-06-22T14:51:27;25.20;57.20
16172;DHT22;8192;53.596;10.166;2023-06-22T14:53:54;24.80;58.80
16172;DHT22;8192;53.596;10.166;2023-06-22T14:56:24;24.60;59.60
16172;DHT22;8192;53.596;10.166;2023-06-22T14:58:51;24.50;62.50
16172;DHT22;8192;53.596;10.166;2023-06-22T15:01:19;24.50;62.70
16172;DHT22;8192;53.596;10.166;2023-06-22T15:03:46;24.60;62.50
16172;DHT22;8192;53.596;10.166;2023-06-22T15:06:13;24.80;63.30
16172;DHT22;8192;53.596;10.166;2023-06-22T15:08:41;25.10;59.70
16172;DHT22;8192;53.596;10.166;2023-06-22T15:11:08;25.20;60.90
16172;DHT22;8192;53.596;10.166;2023-06-22T15:13:39;25.30;59.80
16172;DHT22;8192;53.596;10.166;2023-06-22T15:16:06;25.50;60.60
16172;DHT22;8192;53.596;10.166;2023-06-22T15:18:34;25.50;59.50
16172;DHT22;8192;53.596;10.166;2023-06-22T15:21:02;25.60;58.00
16172;DHT22;8192;53.596;10.166;2023-06-22T15:23:30;25.70;59.00
16172;DHT22;8192;53.596;10.166;2023-06-22T15:25:57;25.70;58.30
16172;DHT22;8192;53.596;10.166;2023-06-22T15:28:25;25.80;57.70
16172;DHT22;8192;53.596;10.166;2023-06-22T15:30:53;25.80;59.20
16172;DHT22;8192;53.596;10.166;2023-06-22T15:33:20;25.70;57.50